Time;durP1;ratioP1;P1;durP2;ratioP2;P2;SDS_P1;SDS_P2;PMS_P1;PMS_P2;Temp;Humidity;BMP_temperature;BMP_pressure;BME280_temperature;BME280_humidity;BME280_pressure;Samples;Min_cycle;Max_cycle;Signal;HPM_P1;HPM_P2
2023/10/09 00:01:31;;;;;;;0.00;0.00;;;;;;;1.91;89.15;97132.88;4954155;28;20046;-67
2023/10/09 00:04:01;;;;;;;0.10;0.10;;;;;;;1.89;89.28;97133.16;4970478;28;20132;-67
2023/10/09 00:06:36;;;;;;;0.10;0.10;;;;;;;1.94;89.68;97149.28;4967323;28;20534;-68
2023/10/09 00:09:17;;;;;;;0.10;0.10;;;;;;;2.03;89.96;97154.06;4983543;28;20044;-68
2023/10/09 00:11:44;;;;;;;0.10;0.10;;;;;;;2.10;89.91;97146.44;4954231;28;20636;-68
2023/10/09 00:14:12;;;;;;;0.10;0.10;;;;;;;2.11;89.60;97167.75;4964788;28;20054;-68
2023/10/09 00:16:48;;;;;;;0.10;0.10;;;;;;;2.10;89.47;97171.53;4991212;28;20046;-67
2023/10/09 00:19:20;;;;;;;0.10;0.10;;;;;;;2.04;89.50;97172.66;4972443;28;20137;-68
2023/10/09 00:21:48;;;;;;;0.10;0.10;;;;;;;2.03;89.63;97178.34;4976171;28;20051;-68
2023/10/09 00:24:24;;;;;;;0.10;0.10;;;;;;;2.05;89.82;97187.75;4972964;28;20050;-66
2023/10/09 00:26:52;;;;;;;0.10;0.10;;;;;;;2.10;89.54;97185.00;4979362;28;20197;-66
2023/10/09 00:29:22;;;;;;;0.10;0.10;;;;;;;2.15;89.61;97194.13;4964983;28;20050;-68
2023/10/09 00:31:51;;;;;;;0.10;0.10;;;;;;;2.09;89.30;97186.09;4966863;28;20081;-68
2023/10/09 00:34:21;;;;;;;0.10;0.10;;;;;;;2.04;89.44;97196.13;4975498;28;20054;-66
2023/10/09 00:36:52;;;;;;;0.03;0.03;;;;;;;2.02;89.61;97195.59;4971150;28;20082;-67
2023/10/09 00:42:06;;;;;;;0.10;0.10;;;;;;;2.06;90.01;97199.31;4970063;28;20051;-66
2023/10/09 00:44:41;;;;;;;0.10;0.10;;;;;;;2.05;90.03;97206.63;4954835;28;20405;-67
2023/10/09 00:47:21;;;;;;;0.10;0.10;;;;;;;2.12;90.00;97220.56;4966209;28;20051;-67
2023/10/09 00:49:54;;;;;;;0.10;0.10;;;;;;;2.10;90.10;97235.41;4949205;28;20047;-67
2023/10/09 00:52:31;;;;;;;0.00;0.00;;;;;;;2.08;90.27;97216.84;4969294;28;20422;-68
2023/10/09 00:55:03;;;;;;;0.10;0.10;;;;;;;2.11;90.23;97226.25;4973423;28;20502;-67
2023/10/09 00:57:37;;;;;;;0.10;0.10;;;;;;;2.13;90.21;97235.66;4975641;28;20097;-66
2023/10/09 01:00:23;;;;;;;0.10;0.10;;;;;;;2.16;89.91;97236.16;4972839;28;20464;-66
2023/10/09 01:03:01;;;;;;;0.10;0.10;;;;;;;2.17;89.71;97241.28;4967058;28;20526;-68
2023/10/09 01:05:28;;;;;;;0.10;0.10;;;;;;;2.25;89.95;97243.38;4953239;28;20414;-66
2023/10/09 01:07:58;;;;;;;0.00;0.00;;;;;;;2.25;89.60;97243.38;4969733;28;20145;-66
2023/10/09 01:10:26;;;;;;;0.10;0.10;;;;;;;2.27;90.11;97243.09;4965419;28;20055;-67
2023/10/09 01:12:55;;;;;;;0.00;0.00;;;;;;;2.24;90.10;97249.84;4955392;28;20089;-66
2023/10/09 01:15:36;;;;;;;0.10;0.10;;;;;;;2.22;90.42;97254.72;4964027;28;20577;-66
2023/10/09 01:18:04;;;;;;;0.10;0.10;;;;;;;2.22;90.73;97260.13;4969118;28;20050;-66
2023/10/09 01:20:40;;;;;;;0.10;0.10;;;;;;;2.20;90.59;97261.50;4986206;28;20071;-66
2023/10/09 01:23:09;;;;;;;0.10;0.10;;;;;;;2.20;90.79;97277.69;4968133;28;20051;-65
2023/10/09 01:25:45;;;;;;;0.10;0.10;;;;;;;2.15;90.58;97265.03;4966711;28;20045;-66
2023/10/09 01:28:15;;;;;;;0.00;0.00;;;;;;;2.01;90.77;97272.94;4983151;28;20534;-66
2023/10/09 01:30:43;;;;;;;0.10;0.10;;;;;;;2.19;90.90;97292.25;4962427;28;20047;-66
2023/10/09 01:33:21;;;;;;;0.10;0.10;;;;;;;2.13;90.76;97299.56;4965655;28;20038;-66
2023/10/09 01:35:50;;;;;;;0.10;0.10;;;;;;;2.11;90.95;97293.66;4969595;28;20094;-65
2023/10/09 01:38:30;;;;;;;0.10;0.10;;;;;;;2.19;90.89;97294.94;4969170;28;20047;-66
2023/10/09 01:41:05;;;;;;;0.10;0.10;;;;;;;2.25;90.67;97310.00;4968818;28;20046;-65
2023/10/09 01:43:34;;;;;;;0.10;0.10;;;;;;;2.24;90.13;97309.16;4948303;28;20047;-66
2023/10/09 01:46:01;;;;;;;0.10;0.10;;;;;;;2.21;90.14;97304.34;4964978;28;20539;-67
2023/10/09 01:48:32;;;;;;;0.10;0.10;;;;;;;2.17;90.31;97307.88;4969200;28;20426;-66
2023/10/09 01:51:00;;;;;;;0.10;0.10;;;;;;;2.16;90.70;97322.44;4968719;28;20056;-66
2023/10/09 01:53:30;;;;;;;0.10;0.10;;;;;;;2.16;90.59;97328.66;4978393;28;20445;-65
2023/10/09 01:55:59;;;;;;;0.10;0.10;;;;;;;2.17;90.94;97335.66;4972292;28;20805;-66
2023/10/09 01:58:27;;;;;;;0.10;0.10;;;;;;;2.22;90.87;97326.75;4961436;28;20502;-65
2023/10/09 02:00:56;;;;;;;;;;;;;;;2.24;90.97;97346.13;4952367;28;20061;-66
2023/10/09 02:03:29;;;;;;;0.10;0.10;;;;;;;2.09;90.92;97325.47;4969653;28;20306;-66
2023/10/09 02:06:04;;;;;;;0.10;0.10;;;;;;;2.31;90.71;97352.00;4988094;28;20080;-66
2023/10/09 02:08:35;;;;;;;0.10;0.10;;;;;;;2.30;90.81;97349.59;4969144;28;20043;-68
2023/10/09 02:11:02;;;;;;;0.10;0.10;;;;;;;2.32;90.63;97350.91;4965376;28;20521;-67
2023/10/09 02:13:31;;;;;;;0.10;0.10;;;;;;;2.34;90.50;97364.94;4967364;28;20043;-66
2023/10/09 02:16:13;;;;;;;0.10;0.10;;;;;;;2.36;89.93;97361.97;4966277;28;20066;-66
2023/10/09 02:18:39;;;;;;;0.10;0.10;;;;;;;2.35;89.97;97363.88;4946498;28;20606;-66
2023/10/09 02:26:18;;;;;;;0.10;0.10;;;;;;;2.42;89.88;97385.13;4961409;28;20054;-66
2023/10/09 02:28:52;;;;;;;0.10;0.10;;;;;;;2.44;89.94;97377.56;4966267;28;20055;-66
2023/10/09 02:31:22;;;;;;;0.10;0.10;;;;;;;2.44;89.57;97390.22;4956408;28;20051;-67
2023/10/09 02:33:54;;;;;;;0.10;0.10;;;;;;;2.40;89.28;97392.66;4977402;28;20050;-67
2023/10/09 02:36:21;;;;;;;0.10;0.10;;;;;;;2.41;89.62;97403.19;4960618;28;20269;-67
2023/10/09 02:38:49;;;;;;;0.10;0.10;;;;;;;2.38;88.76;97394.84;4972227;28;20047;-67
2023/10/09 02:43:48;;;;;;;0.10;0.10;;;;;;;2.30;88.96;97406.25;4973257;28;20308;-68
2023/10/09 02:46:18;;;;;;;0.10;0.10;;;;;;;2.30;88.86;97412.41;4968045;28;20074;-66
2023/10/09 02:48:53;;;;;;;0.10;0.10;;;;;;;2.33;89.20;97422.66;4965021;28;20051;-66
2023/10/09 02:53:57;;;;;;;0.10;0.10;;;;;;;2.44;89.19;97445.00;4965858;28;20054;-66
2023/10/09 02:56:47;;;;;;;0.10;0.10;;;;;;;2.47;88.94;97444.44;4964612;28;20141;-68
2023/10/09 02:59:12;;;;;;;0.10;0.10;;;;;;;2.43;88.49;97446.09;4968637;28;20074;-66
2023/10/09 03:01:40;;;;;;;0.10;0.10;;;;;;;2.48;88.50;97450.63;4965984;28;20577;-66
2023/10/09 03:04:10;;;;;;;0.10;0.10;;;;;;;2.52;88.67;97459.78;4972328;28;20104;-66
2023/10/09 03:06:45;;;;;;;0.10;0.10;;;;;;;2.58;88.31;97453.25;4970093;28;20055;-67
2023/10/09 03:09:16;;;;;;;0.10;0.10;;;;;;;2.55;88.24;97457.31;4976620;28;20583;-67
2023/10/09 03:11:46;;;;;;;0.00;0.00;;;;;;;2.62;87.79;97470.50;4949911;28;20063;-68
2023/10/09 03:14:12;;;;;;;0.10;0.10;;;;;;;2.59;87.45;97476.44;4982699;28;20046;-67
2023/10/09 03:16:38;;;;;;;0.10;0.10;;;;;;;2.60;87.57;97474.56;4962871;28;20648;-66
2023/10/09 03:19:04;;;;;;;0.00;0.00;;;;;;;2.61;87.52;97474.28;4960999;28;20054;-66
2023/10/09 03:21:30;;;;;;;0.10;0.10;;;;;;;2.63;86.99;97477.50;4962155;28;20057;-65
2023/10/09 03:23:57;;;;;;;0.10;0.10;;;;;;;2.64;86.96;97498.00;4950948;28;20042;-66
2023/10/09 03:26:25;;;;;;;0.10;0.10;;;;;;;2.65;87.03;97493.41;4982212;28;20066;-66
2023/10/09 03:28:53;;;;;;;0.10;0.10;;;;;;;2.66;86.58;97492.34;4968309;28;20058;-66
2023/10/09 03:31:19;;;;;;;0.10;0.10;;;;;;;2.64;86.42;97486.41;4962890;28;20121;-67
2023/10/09 03:33:47;;;;;;;0.00;0.00;;;;;;;2.50;86.33;97481.63;4966035;28;20129;-66
2023/10/09 03:36:16;;;;;;;0.10;0.10;;;;;;;2.60;85.91;97496.94;4964281;28;20062;-68
2023/10/09 03:38:44;;;;;;;0.10;0.10;;;;;;;2.64;86.22;97518.78;4968926;28;20105;-66
2023/10/09 03:41:12;;;;;;;;;;;;;;;2.68;85.92;97512.56;4955172;28;20056;-66
2023/10/09 03:43:45;;;;;;;0.10;0.10;;;;;;;2.60;85.22;97517.75;4961214;28;19926;-67
2023/10/09 03:46:21;;;;;;;0.10;0.10;;;;;;;2.55;85.62;97526.66;4968267;28;20074;-67
2023/10/09 03:48:47;;;;;;;0.10;0.10;;;;;;;2.59;86.30;97514.22;4951166;28;20047;-66
2023/10/09 03:51:21;;;;;;;0.00;0.00;;;;;;;2.60;86.21;97528.53;4970235;28;20129;-67
2023/10/09 03:53:47;;;;;;;0.10;0.10;;;;;;;2.40;86.06;97495.97;4968431;28;20045;-67
2023/10/09 03:56:16;;;;;;;0.10;0.10;;;;;;;2.67;86.25;97543.34;4971337;28;20146;-69
2023/10/09 03:58:48;;;;;;;0.10;0.10;;;;;;;2.71;85.85;97532.78;4930399;28;20048;-67
2023/10/09 04:01:29;;;;;;;0.10;0.10;;;;;;;2.69;85.52;97537.66;4987835;28;20047;-67
2023/10/09 04:03:59;;;;;;;0.00;0.00;;;;;;;2.66;85.65;97546.31;4965648;28;20065;-68
2023/10/09 04:06:33;;;;;;;0.10;0.10;;;;;;;2.71;86.18;97545.47;4965865;28;20051;-66
2023/10/09 04:14:47;;;;;;;0.10;0.10;;;;;;;2.46;86.94;97545.31;4923424;29;20541;-67
2023/10/09 04:20:24;;;;;;;0.10;0.10;;;;;;;2.07;89.96;97563.00;4927047;29;19931;-68
2023/10/09 04:22:40;;;;;;;0.05;0.05;;;;;;;1.97;91.91;97571.91;4925708;29;20043;-66
2023/10/09 04:25:24;;;;;;;0.00;0.00;;;;;;;1.85;93.42;97568.69;4924572;29;20059;-67
2023/10/09 04:27:53;;;;;;;0.10;0.10;;;;;;;1.96;94.40;97582.97;4896743;29;20111;-67
2023/10/09 04:30:23;;;;;;;0.10;0.10;;;;;;;1.94;94.92;97585.13;4896895;29;20175;-67
2023/10/09 04:32:49;;;;;;;0.10;0.10;;;;;;;1.95;95.33;97589.44;4928309;29;20044;-67
2023/10/09 04:37:52;;;;;;;0.10;0.10;;;;;;;2.15;95.52;97596.69;4582631;29;10000677;-68
2023/10/09 04:43:07;;;;;;;0.10;0.10;;;;;;;2.29;93.50;97614.97;4923798;29;20607;-67
2023/10/09 04:48:38;;;;;;;0.10;0.10;;;;;;;2.28;92.51;97610.66;4957847;28;20046;-67
2023/10/09 04:51:20;;;;;;;0.10;0.10;;;;;;;2.35;92.15;97620.09;4970396;28;20089;-68
2023/10/09 04:56:53;;;;;;;0.10;0.10;;;;;;;2.35;90.94;97620.09;4962720;28;20042;-67
2023/10/09 04:59:24;;;;;;;0.00;0.00;;;;;;;2.37;90.88;97631.41;4956952;28;20089;-67
2023/10/09 05:01:59;;;;;;;0.10;0.10;;;;;;;2.38;91.20;97622.22;4947413;28;20471;-67
2023/10/09 05:07:22;;;;;;;0.10;0.10;;;;;;;2.41;91.15;97637.88;4954887;28;20657;-67
2023/10/09 05:09:56;;;;;;;0.10;0.10;;;;;;;2.47;91.77;97646.75;4946123;28;20062;-67
2023/10/09 05:12:27;;;;;;;0.10;0.10;;;;;;;2.47;91.55;97640.53;4960734;28;20062;-67
2023/10/09 05:15:07;;;;;;;0.00;0.00;;;;;;;2.41;90.34;97651.34;4960750;28;20063;-67
2023/10/09 05:17:35;;;;;;;0.10;0.10;;;;;;;2.39;90.55;97658.09;4931771;28;20526;-67
2023/10/09 05:22:57;;;;;;;0.10;0.10;;;;;;;2.49;89.67;97651.84;4971711;28;20772;-67
2023/10/09 05:31:07;;;;;;;0.10;0.10;;;;;;;2.71;88.69;97659.63;4953055;28;20065;-67
2023/10/09 05:33:39;;;;;;;0.10;0.10;;;;;;;2.78;87.82;97665.53;4984790;28;20113;-67
2023/10/09 05:36:31;;;;;;;0.10;0.10;;;;;;;2.71;87.03;97678.50;4971270;28;20067;-68
2023/10/09 05:41:59;;;;;;;0.10;0.10;;;;;;;2.68;86.80;97697.94;4966623;28;20137;-68
2023/10/09 05:47:31;;;;;;;0.10;0.10;;;;;;;2.72;86.88;97696.31;4970961;28;20050;-68
2023/10/09 06:16:41;;;;;;;0.10;0.10;;;;;;;3.13;81.59;97730.47;4964137;28;20126;-68
2023/10/09 06:19:12;;;;;;;0.10;0.10;;;;;;;3.04;81.84;97727.50;4970870;28;20137;-68
2023/10/09 06:26:51;;;;;;;0.10;0.10;;;;;;;3.05;83.11;97755.34;4964560;28;20076;-68
2023/10/09 06:29:35;;;;;;;0.10;0.10;;;;;;;3.12;83.20;97751.25;4962430;28;20039;-68
2023/10/09 06:34:51;;;;;;;0.10;0.10;;;;;;;3.28;83.38;97751.19;4964683;28;20055;-67
2023/10/09 06:45:16;;;;;;;0.10;0.10;;;;;;;3.30;83.39;97789.53;4966037;28;20057;-67
2023/10/09 06:55:50;;;;;;;0.10;0.10;;;;;;;3.73;81.48;97801.78;4970122;28;20093;-67
2023/10/09 06:58:41;;;;;;;0.10;0.10;;;;;;;3.75;81.15;97796.91;4966830;28;20066;-67
2023/10/09 07:01:39;;;;;;;0.10;0.10;;;;;;;3.72;80.21;97811.00;4960757;28;20101;-67
2023/10/09 07:16:57;;;;;;;0.10;0.10;;;;;;;3.84;78.16;97830.41;4972888;28;20697;-67
2023/10/09 07:22:23;;;;;;;0.10;0.10;;;;;;;3.82;78.26;97830.66;4962448;28;20077;-67
2023/10/09 07:30:35;;;;;;;0.10;0.10;;;;;;;3.72;77.76;97848.84;4966976;28;20481;-68
2023/10/09 07:33:05;;;;;;;0.10;0.10;;;;;;;3.68;78.20;97857.50;4961055;28;20062;-68
2023/10/09 07:38:14;;;;;;;0.10;0.10;;;;;;;3.64;78.18;97878.03;4955288;28;20093;-67
2023/10/09 07:43:35;;;;;;;0.10;0.10;;;;;;;3.76;78.37;97891.25;4966186;28;20054;-67
2023/10/09 07:48:53;;;;;;;0.10;0.10;;;;;;;3.64;78.64;97885.34;4967362;28;20201;-67
2023/10/09 07:51:52;;;;;;;0.10;0.10;;;;;;;3.63;79.16;97898.03;4964210;28;20050;-67
2023/10/09 07:54:14;;;;;;;0.10;0.10;;;;;;;3.67;79.25;97901.00;4939456;28;20051;-67
2023/10/09 07:56:46;;;;;;;0.10;0.10;;;;;;;3.77;79.43;97919.09;4945527;28;20054;-68
2023/10/09 07:59:14;;;;;;;0.10;0.10;;;;;;;3.73;79.33;97913.41;4954285;28;20051;-67
2023/10/09 08:01:55;;;;;;;0.10;0.10;;;;;;;3.70;79.18;97911.28;4979335;28;20052;-67
2023/10/09 08:04:37;;;;;;;0.10;0.10;;;;;;;3.70;79.57;97913.97;4960888;28;20043;-67
2023/10/09 08:07:07;;;;;;;0.10;0.10;;;;;;;3.80;79.55;97930.16;4958535;28;20055;-68
2023/10/09 08:09:46;;;;;;;0.10;0.10;;;;;;;3.86;79.12;97924.72;4967286;28;20129;-67
2023/10/09 08:12:39;;;;;;;0.10;0.10;;;;;;;3.99;78.79;97926.84;4951553;28;20474;-67
2023/10/09 08:15:20;;;;;;;0.10;0.10;;;;;;;4.04;78.27;97918.69;4961403;28;20129;-67
2023/10/09 08:18:09;;;;;;;0.10;0.10;;;;;;;4.03;78.06;97938.72;4960172;28;20047;-68
2023/10/09 08:23:52;;;;;;;0.10;0.10;;;;;;;4.03;77.96;97946.03;4917293;28;20075;-68
2023/10/09 08:27:28;;;;;;;0.10;0.10;;;;;;;4.02;78.16;97947.91;4966502;28;20050;-68
2023/10/09 08:29:19;;;;;;;0.10;0.10;;;;;;;4.05;78.43;97952.78;4968895;28;20070;-68
2023/10/09 08:31:46;;;;;;;0.10;0.10;;;;;;;4.09;77.82;97961.16;4979790;28;20079;-69
2023/10/09 08:34:24;;;;;;;0.10;0.10;;;;;;;4.03;77.40;97959.56;4943403;28;20043;-68
2023/10/09 08:36:52;;;;;;;0.10;0.10;;;;;;;3.97;77.42;97969.59;4978606;28;20039;-68
2023/10/09 08:39:25;;;;;;;0.10;0.10;;;;;;;4.03;77.35;97967.69;4964852;28;20047;-69
2023/10/09 08:41:52;;;;;;;0.10;0.10;;;;;;;4.16;77.18;97969.78;4970520;28;20057;-68
2023/10/09 08:44:23;;;;;;;0.10;0.10;;;;;;;4.17;75.37;97970.59;4963782;28;20396;-68
2023/10/09 08:46:50;;;;;;;0.10;0.10;;;;;;;4.08;75.82;97975.75;4963382;28;20061;-68
2023/10/09 08:49:17;;;;;;;0.10;0.10;;;;;;;4.05;76.05;97979.81;4965847;28;20055;-68
2023/10/09 08:51:46;;;;;;;0.10;0.10;;;;;;;4.08;76.21;97992.81;4965288;28;20129;-68
2023/10/09 08:54:14;;;;;;;0.10;0.10;;;;;;;4.11;75.70;97992.25;4945391;28;20051;-68
2023/10/09 08:56:49;;;;;;;0.10;0.10;;;;;;;4.17;75.59;97989.53;4961794;28;20497;-68
2023/10/09 08:59:18;;;;;;;0.10;0.10;;;;;;;4.18;74.98;97980.31;4965820;28;20070;-69
2023/10/09 09:01:51;;;;;;;0.10;0.10;;;;;;;4.16;74.66;97969.78;4966880;28;20055;-69
2023/10/09 09:04:39;;;;;;;0.10;0.10;;;;;;;4.24;74.61;97980.03;4945130;28;20057;-68
2023/10/09 09:07:06;;;;;;;0.10;0.10;;;;;;;4.25;74.34;98003.28;4991011;28;20145;-68
2023/10/09 09:09:34;;;;;;;0.20;0.20;;;;;;;4.32;74.34;97997.56;5002653;28;20196;-69
2023/10/09 09:12:00;;;;;;;0.10;0.10;;;;;;;4.27;73.38;97992.19;4986552;28;20054;-68
2023/10/09 09:14:37;;;;;;;0.10;0.10;;;;;;;4.23;74.24;98002.75;4976463;28;20062;-68
2023/10/09 09:17:06;;;;;;;0.10;0.10;;;;;;;4.41;73.78;98008.63;4964353;28;20059;-68
2023/10/09 09:19:32;;;;;;;0.10;0.10;;;;;;;4.53;73.33;98014.53;4964824;28;20051;-67
2023/10/09 09:21:59;;;;;;;0.10;0.10;;;;;;;4.61;72.47;98021.25;4969972;28;20156;-68
2023/10/09 09:27:31;;;;;;;0.10;0.10;;;;;;;4.66;72.16;98021.22;4967045;28;20051;-68
2023/10/09 09:29:54;;;;;;;0.13;0.13;;;;;;;4.79;71.78;98018.97;4951081;28;20534;-69
2023/10/09 09:32:38;;;;;;;0.10;0.10;;;;;;;4.85;72.12;98036.84;4975319;28;20050;-68
2023/10/09 09:35:19;;;;;;;0.10;0.10;;;;;;;4.78;71.94;98033.59;4965560;28;20039;-68
2023/10/09 09:37:54;;;;;;;0.10;0.10;;;;;;;4.73;71.65;98020.13;4947812;28;20050;-69
2023/10/09 09:40:30;;;;;;;0.10;0.10;;;;;;;4.52;71.99;98004.78;4968429;28;20057;-68
2023/10/09 09:43:05;;;;;;;0.15;0.10;;;;;;;4.62;72.71;98027.50;4980151;28;20076;-68
2023/10/09 09:45:32;;;;;;;0.10;0.10;;;;;;;4.57;73.10;98025.63;4965729;28;20058;-69
2023/10/09 09:48:05;;;;;;;0.10;0.10;;;;;;;4.58;73.19;98029.09;4956312;28;20189;-69
2023/10/09 09:50:33;;;;;;;0.45;0.20;;;;;;;4.64;72.72;98031.50;4963398;28;20047;-69
2023/10/09 09:52:59;;;;;;;0.10;0.10;;;;;;;4.75;72.71;98045.81;4963187;28;20097;-68
2023/10/09 09:55:33;;;;;;;0.10;0.10;;;;;;;4.76;73.25;98052.03;4967501;28;20450;-68
2023/10/09 09:58:01;;;;;;;0.10;0.10;;;;;;;4.72;73.46;98048.28;4958853;28;20073;-68
2023/10/09 10:00:42;;;;;;;0.10;0.10;;;;;;;4.67;74.45;98049.91;4947121;28;20061;-68
2023/10/09 10:03:13;;;;;;;0.10;0.10;;;;;;;4.61;74.25;98042.13;4963051;28;20098;-68
2023/10/09 10:05:42;;;;;;;0.10;0.10;;;;;;;4.58;74.74;98046.19;4965497;28;20046;-69
2023/10/09 10:08:13;;;;;;;0.10;0.10;;;;;;;4.73;74.51;98056.09;4965536;28;20141;-68
2023/10/09 10:10:55;;;;;;;0.10;0.10;;;;;;;4.73;73.52;98036.34;4965493;28;20288;-68
2023/10/09 10:13:58;;;;;;;0.10;0.10;;;;;;;4.79;72.93;98051.47;4962859;28;20055;-69
2023/10/09 10:16:34;;;;;;;0.10;0.10;;;;;;;4.97;72.37;98069.78;4963990;28;20042;-69
2023/10/09 10:21:52;;;;;;;0.10;0.10;;;;;;;4.87;72.12;98069.84;4968034;28;20079;-69
2023/10/09 10:24:57;;;;;;;0.10;0.10;;;;;;;4.81;73.33;98066.38;4966054;28;20051;-68
2023/10/09 10:27:26;;;;;;;0.10;0.10;;;;;;;4.64;74.03;98080.25;4959642;28;20512;-68
2023/10/09 10:30:33;;;;;;;0.10;0.10;;;;;;;4.61;74.99;98071.91;4950991;28;20587;-68
2023/10/09 10:33:09;;;;;;;0.10;0.10;;;;;;;4.67;75.02;98078.88;4946191;28;20122;-68
2023/10/09 10:35:45;;;;;;;0.10;0.10;;;;;;;4.65;74.93;98078.38;4951186;28;20055;-68
2023/10/09 10:38:34;;;;;;;0.10;0.10;;;;;;;4.57;75.50;98085.16;4950996;28;20519;-68
2023/10/09 10:41:17;;;;;;;0.10;0.10;;;;;;;4.54;75.67;98083.03;4960564;28;20201;-68
2023/10/09 10:46:37;;;;;;;0.10;0.10;;;;;;;4.56;76.41;98088.13;4942079;28;20051;-68
2023/10/09 10:49:20;;;;;;;0.10;0.10;;;;;;;4.35;76.21;98099.03;4944039;28;20146;-68
2023/10/09 10:51:49;;;;;;;0.10;0.10;;;;;;;4.22;75.95;98106.66;4922427;28;20051;-69
2023/10/09 10:54:45;;;;;;;0.10;0.10;;;;;;;4.19;76.19;98112.63;4953561;28;20047;-68
2023/10/09 10:58:13;;;;;;;0.10;0.10;;;;;;;4.32;75.61;98092.28;4952532;28;20051;-68
2023/10/09 11:03:13;;;;;;;0.10;0.10;;;;;;;4.38;73.99;98107.44;4945409;28;20535;-68
2023/10/09 11:05:42;;;;;;;0.00;0.00;;;;;;;4.46;73.63;98116.06;4963786;28;20043;-69
2023/10/09 11:08:13;;;;;;;0.10;0.10;;;;;;;4.51;73.73;98121.44;4945562;28;20498;-68
2023/10/09 11:10:49;;;;;;;0.10;0.10;;;;;;;4.46;73.72;98105.22;4958517;28;20102;-67
2023/10/09 11:13:52;;;;;;;0.10;0.10;;;;;;;4.58;73.54;98127.38;4976215;28;20461;-69
2023/10/09 11:19:13;;;;;;;0.10;0.10;;;;;;;4.62;74.82;98138.47;4949044;28;20234;-69
2023/10/09 11:21:43;;;;;;;0.00;0.00;;;;;;;4.58;74.77;98132.81;4962173;28;20707;-68
2023/10/09 11:24:24;;;;;;;0.10;0.10;;;;;;;4.48;75.61;98155.31;4963235;28;20054;-68
2023/10/09 11:27:04;;;;;;;0.10;0.10;;;;;;;4.45;75.96;98155.84;4964701;28;20137;-68
2023/10/09 11:32:18;;;;;;;0.10;0.10;;;;;;;4.59;75.88;98157.97;4955792;28;20053;-68
2023/10/09 11:34:51;;;;;;;0.10;0.10;;;;;;;4.55;74.72;98160.44;4946039;28;20089;-69
2023/10/09 11:37:38;;;;;;;0.10;0.10;;;;;;;4.54;74.73;98159.59;4961869;28;20050;-68
2023/10/09 11:40:23;;;;;;;0.10;0.10;;;;;;;4.62;74.54;98166.34;4964070;28;20050;-68
2023/10/09 11:42:50;;;;;;;0.10;0.10;;;;;;;4.74;73.63;98159.81;4965583;28;20050;-68
2023/10/09 11:45:29;;;;;;;0.10;0.10;;;;;;;4.82;73.33;98170.06;4984199;28;20051;-69
2023/10/09 11:50:53;;;;;;;0.10;0.10;;;;;;;4.81;71.91;98182.00;4965066;28;20469;-68
2023/10/09 11:55:48;;;;;;;0.10;0.10;;;;;;;4.63;72.80;98188.84;4940900;28;20098;-69
2023/10/09 11:58:22;;;;;;;0.00;0.00;;;;;;;4.40;75.94;98189.16;4940029;28;20422;-68
2023/10/09 12:00:51;;;;;;;0.10;0.10;;;;;;;4.14;78.04;98191.09;4955779;28;20061;-68
2023/10/09 12:03:21;;;;;;;0.10;0.10;;;;;;;4.01;79.44;98194.34;4958515;28;20058;-68
2023/10/09 12:05:49;;;;;;;0.10;0.10;;;;;;;4.05;79.41;98192.69;4964849;28;20059;-69
2023/10/09 12:08:16;;;;;;;0.10;0.10;;;;;;;4.18;78.76;98204.84;4983842;28;20051;-68
2023/10/09 12:10:43;;;;;;;0.10;0.10;;;;;;;4.26;78.56;98198.91;4989861;28;20463;-68
2023/10/09 12:13:11;;;;;;;0.10;0.10;;;;;;;4.40;78.25;98215.38;4981908;28;20046;-68
2023/10/09 12:15:37;;;;;;;0.10;0.10;;;;;;;4.40;77.76;98186.44;4951556;28;20078;-69
2023/10/09 12:18:08;;;;;;;0.10;0.10;;;;;;;4.34;77.43;98206.47;4967546;28;20173;-69
2023/10/09 12:20:35;;;;;;;0.10;0.10;;;;;;;4.23;77.24;98213.00;4982814;28;20653;-69
2023/10/09 12:23:05;;;;;;;0.10;0.10;;;;;;;4.17;78.03;98217.59;4981882;28;20566;-68
2023/10/09 12:25:32;;;;;;;0.10;0.10;;;;;;;4.15;77.74;98213.53;4968439;28;20105;-68
2023/10/09 12:28:03;;;;;;;0.10;0.10;;;;;;;4.19;77.32;98231.66;4967393;28;20051;-69
2023/10/09 12:30:39;;;;;;;0.10;0.10;;;;;;;4.23;77.22;98230.03;4955179;28;20043;-68
2023/10/09 12:33:07;;;;;;;0.10;0.10;;;;;;;4.25;76.73;98235.19;4965208;28;20046;-68
2023/10/09 12:35:36;;;;;;;0.10;0.10;;;;;;;4.31;76.64;98235.97;4965671;28;20051;-68
2023/10/09 12:38:03;;;;;;;0.10;0.10;;;;;;;4.37;76.24;98241.13;4967238;28;20120;-68
2023/10/09 12:40:31;;;;;;;0.10;0.10;;;;;;;4.33;76.04;98252.75;4966210;28;20051;-68
2023/10/09 12:43:00;;;;;;;0.10;0.10;;;;;;;4.27;76.30;98235.72;4960406;28;20046;-68
2023/10/09 12:45:37;;;;;;;0.00;0.00;;;;;;;4.28;75.63;98226.50;4950612;28;20047;-69
2023/10/09 12:48:12;;;;;;;0.10;0.10;;;;;;;4.21;75.71;98239.47;4947937;28;20051;-69
2023/10/09 12:50:44;;;;;;;0.10;0.10;;;;;;;4.26;76.08;98255.72;4948137;28;20055;-68
2023/10/09 12:53:11;;;;;;;0.10;0.10;;;;;;;4.28;74.87;98248.16;4966612;28;20581;-68
2023/10/09 12:55:44;;;;;;;0.10;0.10;;;;;;;4.31;74.25;98263.03;4984001;28;20047;-68
2023/10/09 12:58:15;;;;;;;0.10;0.10;;;;;;;4.28;74.63;98260.84;4968195;28;20080;-68
2023/10/09 13:00:48;;;;;;;0.10;0.10;;;;;;;4.38;74.46;98269.81;4967742;28;20055;-68
2023/10/09 13:03:17;;;;;;;0.10;0.10;;;;;;;4.36;74.12;98261.13;4957281;28;20138;-68
2023/10/09 13:05:55;;;;;;;0.10;0.10;;;;;;;4.24;74.49;98269.53;4954502;28;20415;-68
2023/10/09 13:08:23;;;;;;;0.10;0.10;;;;;;;4.19;75.51;98271.41;4927566;28;20050;-68
2023/10/09 13:11:00;;;;;;;0.10;0.10;;;;;;;4.17;76.14;98277.09;4945545;28;20055;-68
2023/10/09 13:13:39;;;;;;;0.10;0.10;;;;;;;4.11;76.60;98295.22;4950716;28;20535;-68
2023/10/09 13:16:08;;;;;;;0.10;0.10;;;;;;;4.10;77.15;98290.06;4961332;28;20306;-69
2023/10/09 13:18:37;;;;;;;0.10;0.10;;;;;;;4.14;77.28;98296.59;4962628;28;20430;-68
2023/10/09 13:21:04;;;;;;;0.10;0.10;;;;;;;4.22;77.23;98300.66;4961886;28;20127;-68
2023/10/09 13:23:38;;;;;;;0.10;0.10;;;;;;;4.25;76.68;98294.69;4949734;28;20277;-68
2023/10/09 13:26:17;;;;;;;0.10;0.10;;;;;;;4.25;76.33;98305.53;4979615;28;20061;-68
2023/10/09 13:28:53;;;;;;;0.10;0.10;;;;;;;4.25;76.52;98310.94;4962274;28;20055;-68
2023/10/09 13:31:21;;;;;;;0.10;0.10;;;;;;;4.18;76.94;98303.06;4955404;28;20442;-68
2023/10/09 13:33:49;;;;;;;0.10;0.10;;;;;;;4.12;78.18;98309.56;4949182;28;20077;-68
2023/10/09 13:36:27;;;;;;;;;;;;;;;4.01;79.36;98319.53;4949487;28;20062;-68
2023/10/09 13:38:54;;;;;;;0.10;0.10;;;;;;;3.93;80.10;98315.47;4952706;28;20304;-68
2023/10/09 13:41:21;;;;;;;0.10;0.10;;;;;;;3.89;81.29;98318.97;4948633;28;20483;-68
2023/10/09 13:43:51;;;;;;;0.15;0.05;;;;;;;3.90;81.69;98328.72;4947499;28;20051;-68
2023/10/09 13:46:18;;;;;;;0.00;0.00;;;;;;;3.89;82.05;98329.78;4954272;28;20043;-68
2023/10/09 13:48:46;;;;;;;0.10;0.10;;;;;;;3.94;82.62;98338.72;4967374;28;20046;-68
2023/10/09 13:51:17;;;;;;;0.10;0.10;;;;;;;3.91;82.53;98339.28;4958617;28;20130;-68
2023/10/09 13:53:46;;;;;;;0.10;0.10;;;;;;;3.80;82.81;98330.31;4959499;28;20055;-68
2023/10/09 13:56:15;;;;;;;0.00;0.00;;;;;;;3.72;83.75;98354.38;4965947;28;20058;-68
2023/10/09 13:58:42;;;;;;;0.10;0.10;;;;;;;3.69;85.35;98358.41;4950688;28;20053;-68
2023/10/09 14:01:09;;;;;;;0.10;0.10;;;;;;;3.65;86.33;98352.69;4948336;28;20047;-68
2023/10/09 14:03:38;;;;;;;0.10;0.10;;;;;;;3.59;87.01;98361.06;4958320;28;20040;-68
2023/10/09 14:06:12;;;;;;;0.10;0.10;;;;;;;3.56;87.86;98370.53;4953764;28;20055;-68
2023/10/09 14:08:42;;;;;;;0.10;0.10;;;;;;;3.53;88.47;98371.06;4960648;28;20122;-68
2023/10/09 14:11:13;;;;;;;0.10;0.10;;;;;;;3.51;89.26;98368.59;4948285;28;20043;-67
2023/10/09 14:13:40;;;;;;;0.00;0.00;;;;;;;3.44;89.06;98373.44;4952552;28;20571;-67
2023/10/09 14:16:06;;;;;;;0.10;0.10;;;;;;;3.35;88.94;98378.50;4979576;28;20074;-68
2023/10/09 14:18:33;;;;;;;0.10;0.10;;;;;;;3.30;88.81;98383.09;4963759;28;20109;-68
2023/10/09 14:21:15;;;;;;;0.10;0.10;;;;;;;3.29;88.76;98387.66;4963957;28;20461;-67
2023/10/09 14:23:46;;;;;;;0.10;0.10;;;;;;;3.33;88.29;98396.88;4951891;28;20589;-67
2023/10/09 14:26:13;;;;;;;0.00;0.00;;;;;;;3.38;87.43;98390.69;4947502;28;20524;-67
2023/10/09 14:28:42;;;;;;;0.10;0.10;;;;;;;3.47;87.22;98399.94;4962779;28;20046;-68
2023/10/09 14:31:12;;;;;;;0.00;0.00;;;;;;;3.57;86.80;98395.66;4946203;28;20055;-67
2023/10/09 14:33:40;;;;;;;0.10;0.10;;;;;;;3.57;85.94;98401.06;4948536;28;20058;-67
2023/10/09 14:36:07;;;;;;;0.10;0.10;;;;;;;3.59;85.94;98404.31;4979870;28;20446;-67
2023/10/09 14:38:38;;;;;;;0.10;0.10;;;;;;;3.59;85.47;98397.00;4963063;28;20059;-68
2023/10/09 14:41:11;;;;;;;0.10;0.10;;;;;;;3.51;84.56;98398.31;4954478;28;20051;-68
2023/10/09 14:43:38;;;;;;;0.10;0.10;;;;;;;3.43;84.69;98393.41;4950300;28;20050;-67